CMB843 Details

Departure: Naval Station Rota (LERT)
Arrival: NAS Sigonella (LICZ)
Route: MGA2Z MGA UN851 MHN UM603 ORKUM M603 ALG M732 CAR M871 LIBRO LIBRO2N
Notes: USTRANSCOM CONTRACT FLIGHT


Current Weather Information
LERT 260908Z 10023G34KT 070V130 CAVOK 20/07 Q1010 NOSIG
LICZ 260855Z 27011KT CAVOK 18/09 Q1011 RMK SKC VIS MIN 9999 WIND THR28 27012KT WIND THR10 27011KT A2988 BLU